sensor_id;sensor_type;location;lat;lon;timestamp;P1;durP1;ratioP1;P2;durP2;ratioP2
48727;SDS011;34527;45.618;5.130;2024-03-08T00:00:40;12.65;;;6.53;;
48727;SDS011;34527;45.618;5.130;2024-03-08T00:03:07;16.88;;;7.88;;
48727;SDS011;34527;45.618;5.130;2024-03-08T00:05:35;14.57;;;8.02;;
48727;SDS011;34527;45.618;5.130;2024-03-08T00:08:03;11.35;;;6.30;;
48727;SDS011;34527;45.618;5.130;2024-03-08T00:10:30;13.00;;;7.13;;
48727;SDS011;34527;45.618;5.130;2024-03-08T00:12:55;15.68;;;6.70;;
48727;SDS011;34527;45.618;5.130;2024-03-08T00:15:22;12.15;;;6.07;;
48727;SDS011;34527;45.618;5.130;2024-03-08T00:17:48;19.40;;;5.82;;
48727;SDS011;34527;45.618;5.130;2024-03-08T00:20:14;13.30;;;6.43;;
48727;SDS011;34527;45.618;5.130;2024-03-08T00:22:42;12.05;;;6.00;;
48727;SDS011;34527;45.618;5.130;2024-03-08T00:25:08;11.10;;;6.80;;
48727;SDS011;34527;45.618;5.130;2024-03-08T00:27:34;12.70;;;7.20;;
48727;SDS011;34527;45.618;5.130;2024-03-08T00:30:00;14.05;;;6.10;;
48727;SDS011;34527;45.618;5.130;2024-03-08T00:32:26;11.43;;;6.75;;
48727;SDS011;34527;45.618;5.130;2024-03-08T00:34:52;9.65;;;5.90;;
48727;SDS011;34527;45.618;5.130;2024-03-08T00:37:19;14.02;;;7.07;;
48727;SDS011;34527;45.618;5.130;2024-03-08T00:39:46;10.68;;;6.80;;
48727;SDS011;34527;45.618;5.130;2024-03-08T00:42:14;13.95;;;6.47;;
48727;SDS011;34527;45.618;5.130;2024-03-08T00:44:40;13.02;;;6.28;;
48727;SDS011;34527;45.618;5.130;2024-03-08T00:47:06;13.55;;;6.22;;
48727;SDS011;34527;45.618;5.130;2024-03-08T00:49:31;10.75;;;6.22;;
48727;SDS011;34527;45.618;5.130;2024-03-08T00:51:57;10.30;;;5.75;;
48727;SDS011;34527;45.618;5.130;2024-03-08T00:54:22;14.63;;;6.28;;
48727;SDS011;34527;45.618;5.130;2024-03-08T00:56:48;12.38;;;6.20;;
48727;SDS011;34527;45.618;5.130;2024-03-08T00:59:14;7.90;;;5.60;;
48727;SDS011;34527;45.618;5.130;2024-03-08T01:01:40;12.73;;;5.95;;
48727;SDS011;34527;45.618;5.130;2024-03-08T01:04:06;8.02;;;5.13;;
48727;SDS011;34527;45.618;5.130;2024-03-08T01:06:32;10.02;;;6.00;;
48727;SDS011;34527;45.618;5.130;2024-03-08T01:08:59;9.90;;;5.30;;
48727;SDS011;34527;45.618;5.130;2024-03-08T01:11:24;13.68;;;5.55;;
48727;SDS011;34527;45.618;5.130;2024-03-08T01:13:50;11.50;;;5.50;;
48727;SDS011;34527;45.618;5.130;2024-03-08T01:16:16;11.15;;;5.55;;
48727;SDS011;34527;45.618;5.130;2024-03-08T01:18:46;10.35;;;5.60;;
48727;SDS011;34527;45.618;5.130;2024-03-08T01:21:12;10.60;;;6.05;;
48727;SDS011;34527;45.618;5.130;2024-03-08T01:23:38;8.52;;;5.10;;
48727;SDS011;34527;45.618;5.130;2024-03-08T01:26:03;12.80;;;5.90;;
48727;SDS011;34527;45.618;5.130;2024-03-08T01:28:29;12.77;;;5.78;;
48727;SDS011;34527;45.618;5.130;2024-03-08T01:30:55;7.57;;;5.03;;
48727;SDS011;34527;45.618;5.130;2024-03-08T01:33:24;11.02;;;6.07;;
48727;SDS011;34527;45.618;5.130;2024-03-08T01:35:53;8.52;;;6.07;;
48727;SDS011;34527;45.618;5.130;2024-03-08T01:38:19;13.10;;;6.10;;
48727;SDS011;34527;45.618;5.130;2024-03-08T01:40:48;11.70;;;6.55;;
48727;SDS011;34527;45.618;5.130;2024-03-08T01:43:21;9.02;;;6.20;;
48727;SDS011;34527;45.618;5.130;2024-03-08T01:45:50;11.52;;;5.35;;
48727;SDS011;34527;45.618;5.130;2024-03-08T01:48:16;11.27;;;6.20;;
48727;SDS011;34527;45.618;5.130;2024-03-08T01:50:42;9.95;;;6.60;;
48727;SDS011;34527;45.618;5.130;2024-03-08T01:53:09;16.33;;;7.22;;
48727;SDS011;34527;45.618;5.130;2024-03-08T01:55:36;12.75;;;6.50;;
48727;SDS011;34527;45.618;5.130;2024-03-08T01:58:07;16.08;;;7.85;;
48727;SDS011;34527;45.618;5.130;2024-03-08T02:00:35;16.95;;;5.70;;
48727;SDS011;34527;45.618;5.130;2024-03-08T02:03:05;12.70;;;6.07;;
48727;SDS011;34527;45.618;5.130;2024-03-08T02:05:30;8.18;;;5.18;;
48727;SDS011;34527;45.618;5.130;2024-03-08T02:07:56;9.70;;;5.13;;
48727;SDS011;34527;45.618;5.130;2024-03-08T02:10:22;9.13;;;5.38;;
48727;SDS011;34527;45.618;5.130;2024-03-08T02:12:48;11.52;;;4.60;;
48727;SDS011;34527;45.618;5.130;2024-03-08T02:15:15;8.60;;;5.13;;
48727;SDS011;34527;45.618;5.130;2024-03-08T02:17:41;10.43;;;4.72;;
48727;SDS011;34527;45.618;5.130;2024-03-08T02:20:07;7.03;;;4.70;;
48727;SDS011;34527;45.618;5.130;2024-03-08T02:22:35;9.20;;;4.50;;
48727;SDS011;34527;45.618;5.130;2024-03-08T02:25:02;9.73;;;4.47;;
48727;SDS011;34527;45.618;5.130;2024-03-08T02:27:28;9.18;;;4.78;;
48727;SDS011;34527;45.618;5.130;2024-03-08T02:29:57;9.68;;;4.50;;
48727;SDS011;34527;45.618;5.130;2024-03-08T02:32:24;14.13;;;5.22;;
48727;SDS011;34527;45.618;5.130;2024-03-08T02:34:49;6.38;;;4.70;;
48727;SDS011;34527;45.618;5.130;2024-03-08T02:37:16;12.13;;;5.00;;
48727;SDS011;34527;45.618;5.130;2024-03-08T02:39:42;10.07;;;4.65;;
48727;SDS011;34527;45.618;5.130;2024-03-08T02:42:08;9.38;;;4.18;;
48727;SDS011;34527;45.618;5.130;2024-03-08T02:44:34;10.75;;;4.70;;
48727;SDS011;34527;45.618;5.130;2024-03-08T02:46:59;10.70;;;5.50;;
48727;SDS011;34527;45.618;5.130;2024-03-08T02:49:25;12.02;;;4.80;;
48727;SDS011;34527;45.618;5.130;2024-03-08T02:51:55;9.50;;;4.95;;
48727;SDS011;34527;45.618;5.130;2024-03-08T02:54:22;8.90;;;5.38;;
48727;SDS011;34527;45.618;5.130;2024-03-08T02:56:49;10.60;;;5.22;;
48727;SDS011;34527;45.618;5.130;2024-03-08T02:59:17;9.48;;;5.32;;
48727;SDS011;34527;45.618;5.130;2024-03-08T03:01:43;12.02;;;4.90;;
48727;SDS011;34527;45.618;5.130;2024-03-08T03:04:09;12.20;;;5.05;;
48727;SDS011;34527;45.618;5.130;2024-03-08T03:06:35;9.48;;;5.57;;
48727;SDS011;34527;45.618;5.130;2024-03-08T03:09:00;9.95;;;4.90;;
48727;SDS011;34527;45.618;5.130;2024-03-08T03:11:26;9.93;;;5.50;;
48727;SDS011;34527;45.618;5.130;2024-03-08T03:13:52;8.02;;;4.90;;
48727;SDS011;34527;45.618;5.130;2024-03-08T03:16:18;7.75;;;5.18;;
48727;SDS011;34527;45.618;5.130;2024-03-08T03:18:45;14.20;;;5.43;;
48727;SDS011;34527;45.618;5.130;2024-03-08T03:21:11;10.98;;;5.78;;
48727;SDS011;34527;45.618;5.130;2024-03-08T03:23:38;9.02;;;5.45;;
48727;SDS011;34527;45.618;5.130;2024-03-08T03:26:09;11.05;;;5.70;;
48727;SDS011;34527;45.618;5.130;2024-03-08T03:28:38;11.52;;;5.40;;
48727;SDS011;34527;45.618;5.130;2024-03-08T03:31:07;11.38;;;6.03;;
48727;SDS011;34527;45.618;5.130;2024-03-08T03:33:33;11.48;;;6.68;;
48727;SDS011;34527;45.618;5.130;2024-03-08T03:36:02;11.48;;;7.70;;
48727;SDS011;34527;45.618;5.130;2024-03-08T03:38:30;9.52;;;6.78;;
48727;SDS011;34527;45.618;5.130;2024-03-08T03:40:55;10.45;;;7.38;;
48727;SDS011;34527;45.618;5.130;2024-03-08T03:43:23;12.55;;;6.97;;
48727;SDS011;34527;45.618;5.130;2024-03-08T03:45:48;10.93;;;7.43;;
48727;SDS011;34527;45.618;5.130;2024-03-08T03:48:14;11.23;;;7.55;;
48727;SDS011;34527;45.618;5.130;2024-03-08T03:50:40;10.23;;;7.18;;
48727;SDS011;34527;45.618;5.130;2024-03-08T03:53:05;14.02;;;8.07;;
48727;SDS011;34527;45.618;5.130;2024-03-08T03:55:33;11.68;;;7.38;;
48727;SDS011;34527;45.618;5.130;2024-03-08T03:57:59;11.18;;;7.45;;
48727;SDS011;34527;45.618;5.130;2024-03-08T04:00:26;12.27;;;7.22;;
48727;SDS011;34527;45.618;5.130;2024-03-08T04:02:52;13.18;;;7.15;;
48727;SDS011;34527;45.618;5.130;2024-03-08T04:05:17;11.02;;;6.45;;
48727;SDS011;34527;45.618;5.130;2024-03-08T04:07:43;10.07;;;6.22;;
48727;SDS011;34527;45.618;5.130;2024-03-08T04:10:10;11.52;;;6.40;;
48727;SDS011;34527;45.618;5.130;2024-03-08T04:12:36;9.68;;;6.13;;
48727;SDS011;34527;45.618;5.130;2024-03-08T04:15:02;8.43;;;5.70;;
48727;SDS011;34527;45.618;5.130;2024-03-08T04:17:29;8.93;;;5.63;;
48727;SDS011;34527;45.618;5.130;2024-03-08T04:19:56;10.05;;;5.85;;
48727;SDS011;34527;45.618;5.130;2024-03-08T04:22:22;11.50;;;6.22;;
48727;SDS011;34527;45.618;5.130;2024-03-08T04:24:47;13.07;;;5.88;;
48727;SDS011;34527;45.618;5.130;2024-03-08T04:27:13;9.93;;;5.72;;
48727;SDS011;34527;45.618;5.130;2024-03-08T04:29:39;10.23;;;5.53;;
48727;SDS011;34527;45.618;5.130;2024-03-08T04:32:05;8.40;;;5.45;;
48727;SDS011;34527;45.618;5.130;2024-03-08T04:34:31;9.18;;;5.38;;
48727;SDS011;34527;45.618;5.130;2024-03-08T04:36:58;7.68;;;5.25;;
48727;SDS011;34527;45.618;5.130;2024-03-08T04:39:24;9.63;;;5.78;;
48727;SDS011;34527;45.618;5.130;2024-03-08T04:41:53;7.22;;;4.88;;
48727;SDS011;34527;45.618;5.130;2024-03-08T04:44:19;7.55;;;5.82;;
48727;SDS011;34527;45.618;5.130;2024-03-08T04:46:45;8.45;;;5.05;;
48727;SDS011;34527;45.618;5.130;2024-03-08T04:49:11;8.35;;;5.07;;
48727;SDS011;34527;45.618;5.130;2024-03-08T04:51:38;10.20;;;5.10;;
48727;SDS011;34527;45.618;5.130;2024-03-08T04:54:03;7.32;;;4.85;;
48727;SDS011;34527;45.618;5.130;2024-03-08T04:56:32;12.65;;;5.57;;
48727;SDS011;34527;45.618;5.130;2024-03-08T04:58:58;9.13;;;5.78;;
48727;SDS011;34527;45.618;5.130;2024-03-08T05:01:24;8.95;;;5.30;;
48727;SDS011;34527;45.618;5.130;2024-03-08T05:03:49;10.68;;;5.70;;
48727;SDS011;34527;45.618;5.130;2024-03-08T05:06:16;12.15;;;6.18;;
48727;SDS011;34527;45.618;5.130;2024-03-08T05:08:41;9.73;;;5.93;;
48727;SDS011;34527;45.618;5.130;2024-03-08T05:11:07;12.13;;;6.78;;
48727;SDS011;34527;45.618;5.130;2024-03-08T05:13:33;9.38;;;6.55;;
48727;SDS011;34527;45.618;5.130;2024-03-08T05:16:02;9.98;;;6.60;;
48727;SDS011;34527;45.618;5.130;2024-03-08T05:18:28;11.80;;;6.72;;
48727;SDS011;34527;45.618;5.130;2024-03-08T05:20:54;13.65;;;8.00;;
48727;SDS011;34527;45.618;5.130;2024-03-08T05:23:19;11.05;;;7.68;;
48727;SDS011;34527;45.618;5.130;2024-03-08T05:25:45;15.00;;;8.48;;
48727;SDS011;34527;45.618;5.130;2024-03-08T05:28:14;16.20;;;9.77;;
48727;SDS011;34527;45.618;5.130;2024-03-08T05:30:40;56.88;;;29.20;;
48727;SDS011;34527;45.618;5.130;2024-03-08T05:33:06;25.58;;;15.32;;
48727;SDS011;34527;45.618;5.130;2024-03-08T05:35:35;16.10;;;10.65;;
48727;SDS011;34527;45.618;5.130;2024-03-08T05:38:01;17.15;;;11.13;;
48727;SDS011;34527;45.618;5.130;2024-03-08T05:40:26;16.15;;;10.82;;
48727;SDS011;34527;45.618;5.130;2024-03-08T05:42:56;15.32;;;11.25;;
48727;SDS011;34527;45.618;5.130;2024-03-08T05:45:25;15.90;;;11.43;;
48727;SDS011;34527;45.618;5.130;2024-03-08T05:47:51;18.75;;;11.77;;
48727;SDS011;34527;45.618;5.130;2024-03-08T05:50:17;16.02;;;11.85;;
48727;SDS011;34527;45.618;5.130;2024-03-08T05:52:44;15.95;;;11.23;;
48727;SDS011;34527;45.618;5.130;2024-03-08T05:55:10;17.30;;;11.90;;
48727;SDS011;34527;45.618;5.130;2024-03-08T05:57:36;18.00;;;11.88;;
48727;SDS011;34527;45.618;5.130;2024-03-08T06:00:05;19.60;;;13.00;;
48727;SDS011;34527;45.618;5.130;2024-03-08T06:02:31;21.05;;;12.65;;
48727;SDS011;34527;45.618;5.130;2024-03-08T06:04:56;18.67;;;12.07;;
48727;SDS011;34527;45.618;5.130;2024-03-08T06:07:22;21.35;;;14.02;;
48727;SDS011;34527;45.618;5.130;2024-03-08T06:09:47;27.02;;;15.30;;
48727;SDS011;34527;45.618;5.130;2024-03-08T06:12:14;22.60;;;14.20;;
48727;SDS011;34527;45.618;5.130;2024-03-08T06:14:43;20.63;;;13.55;;
48727;SDS011;34527;45.618;5.130;2024-03-08T06:17:09;20.95;;;12.98;;
48727;SDS011;34527;45.618;5.130;2024-03-08T06:19:36;19.70;;;12.75;;
48727;SDS011;34527;45.618;5.130;2024-03-08T06:22:01;19.17;;;12.68;;
48727;SDS011;34527;45.618;5.130;2024-03-08T06:24:30;20.08;;;11.95;;
48727;SDS011;34527;45.618;5.130;2024-03-08T06:27:01;18.25;;;12.60;;
48727;SDS011;34527;45.618;5.130;2024-03-08T06:29:27;22.85;;;14.40;;
48727;SDS011;34527;45.618;5.130;2024-03-08T06:31:52;22.50;;;14.05;;
48727;SDS011;34527;45.618;5.130;2024-03-08T06:34:18;22.05;;;13.80;;
48727;SDS011;34527;45.618;5.130;2024-03-08T06:36:44;18.45;;;12.35;;
48727;SDS011;34527;45.618;5.130;2024-03-08T06:39:09;17.90;;;11.98;;
48727;SDS011;34527;45.618;5.130;2024-03-08T06:41:38;24.77;;;14.95;;
48727;SDS011;34527;45.618;5.130;2024-03-08T06:44:04;23.73;;;14.18;;
48727;SDS011;34527;45.618;5.130;2024-03-08T06:46:30;20.08;;;13.15;;
48727;SDS011;34527;45.618;5.130;2024-03-08T06:48:55;21.73;;;13.50;;
48727;SDS011;34527;45.618;5.130;2024-03-08T06:51:21;20.42;;;13.23;;
48727;SDS011;34527;45.618;5.130;2024-03-08T06:53:47;21.55;;;13.85;;
48727;SDS011;34527;45.618;5.130;2024-03-08T06:56:14;17.50;;;12.27;;
48727;SDS011;34527;45.618;5.130;2024-03-08T06:58:40;16.65;;;12.00;;
48727;SDS011;34527;45.618;5.130;2024-03-08T07:01:06;17.15;;;10.90;;
48727;SDS011;34527;45.618;5.130;2024-03-08T07:03:32;13.57;;;10.32;;
48727;SDS011;34527;45.618;5.130;2024-03-08T07:05:58;15.18;;;10.30;;
48727;SDS011;34527;45.618;5.130;2024-03-08T07:08:24;14.25;;;10.02;;
48727;SDS011;34527;45.618;5.130;2024-03-08T07:10:51;14.88;;;9.82;;
48727;SDS011;34527;45.618;5.130;2024-03-08T07:13:18;12.95;;;9.13;;
48727;SDS011;34527;45.618;5.130;2024-03-08T07:15:43;16.73;;;9.90;;
48727;SDS011;34527;45.618;5.130;2024-03-08T07:18:10;14.00;;;9.45;;
48727;SDS011;34527;45.618;5.130;2024-03-08T07:20:39;15.88;;;11.07;;
48727;SDS011;34527;45.618;5.130;2024-03-08T07:23:05;17.17;;;11.25;;
48727;SDS011;34527;45.618;5.130;2024-03-08T07:25:31;16.23;;;11.40;;
48727;SDS011;34527;45.618;5.130;2024-03-08T07:27:56;16.77;;;11.27;;
48727;SDS011;34527;45.618;5.130;2024-03-08T07:30:23;14.88;;;10.50;;
48727;SDS011;34527;45.618;5.130;2024-03-08T07:33:08;17.67;;;11.90;;
48727;SDS011;34527;45.618;5.130;2024-03-08T07:35:36;17.23;;;11.40;;
48727;SDS011;34527;45.618;5.130;2024-03-08T07:38:03;18.73;;;12.30;;
48727;SDS011;34527;45.618;5.130;2024-03-08T07:40:30;16.95;;;11.90;;
48727;SDS011;34527;45.618;5.130;2024-03-08T07:42:56;16.48;;;11.10;;
48727;SDS011;34527;45.618;5.130;2024-03-08T07:45:23;17.58;;;12.07;;
48727;SDS011;34527;45.618;5.130;2024-03-08T07:47:49;15.88;;;11.52;;
48727;SDS011;34527;45.618;5.130;2024-03-08T07:50:15;16.45;;;12.18;;
48727;SDS011;34527;45.618;5.130;2024-03-08T07:52:41;18.92;;;12.05;;
48727;SDS011;34527;45.618;5.130;2024-03-08T07:55:07;16.55;;;11.45;;
48727;SDS011;34527;45.618;5.130;2024-03-08T07:57:33;15.32;;;11.10;;
48727;SDS011;34527;45.618;5.130;2024-03-08T07:59:59;15.25;;;10.88;;
48727;SDS011;34527;45.618;5.130;2024-03-08T08:02:24;15.60;;;12.07;;
48727;SDS011;34527;45.618;5.130;2024-03-08T08:04:50;17.95;;;11.45;;
48727;SDS011;34527;45.618;5.130;2024-03-08T08:07:16;15.18;;;11.70;;
48727;SDS011;34527;45.618;5.130;2024-03-08T08:09:41;15.98;;;11.85;;
48727;SDS011;34527;45.618;5.130;2024-03-08T08:12:10;16.92;;;11.20;;
48727;SDS011;34527;45.618;5.130;2024-03-08T08:14:37;16.48;;;11.25;;
48727;SDS011;34527;45.618;5.130;2024-03-08T08:17:06;14.32;;;10.10;;
48727;SDS011;34527;45.618;5.130;2024-03-08T08:19:33;15.30;;;9.57;;
48727;SDS011;34527;45.618;5.130;2024-03-08T08:22:00;13.07;;;9.77;;
48727;SDS011;34527;45.618;5.130;2024-03-08T08:24:27;14.27;;;11.10;;
48727;SDS011;34527;45.618;5.130;2024-03-08T08:26:53;14.88;;;10.25;;
48727;SDS011;34527;45.618;5.130;2024-03-08T08:29:18;14.35;;;9.75;;
48727;SDS011;34527;45.618;5.130;2024-03-08T08:31:45;11.73;;;8.95;;
48727;SDS011;34527;45.618;5.130;2024-03-08T08:34:11;12.55;;;9.30;;
48727;SDS011;34527;45.618;5.130;2024-03-08T08:36:38;13.70;;;9.60;;
48727;SDS011;34527;45.618;5.130;2024-03-08T08:39:04;13.85;;;9.93;;
48727;SDS011;34527;45.618;5.130;2024-03-08T08:41:36;13.32;;;9.25;;
48727;SDS011;34527;45.618;5.130;2024-03-08T08:44:01;13.35;;;9.38;;
48727;SDS011;34527;45.618;5.130;2024-03-08T08:46:27;12.52;;;9.27;;
48727;SDS011;34527;45.618;5.130;2024-03-08T08:48:53;11.90;;;8.80;;
48727;SDS011;34527;45.618;5.130;2024-03-08T08:51:19;13.23;;;9.48;;
48727;SDS011;34527;45.618;5.130;2024-03-08T08:53:45;14.90;;;10.00;;
48727;SDS011;34527;45.618;5.130;2024-03-08T08:56:12;14.20;;;10.13;;
48727;SDS011;34527;45.618;5.130;2024-03-08T08:58:44;13.40;;;9.75;;
48727;SDS011;34527;45.618;5.130;2024-03-08T09:01:10;18.58;;;10.45;;
48727;SDS011;34527;45.618;5.130;2024-03-08T09:03:36;17.50;;;10.68;;
48727;SDS011;34527;45.618;5.130;2024-03-08T09:06:05;12.82;;;9.77;;
48727;SDS011;34527;45.618;5.130;2024-03-08T09:08:34;17.42;;;10.15;;
48727;SDS011;34527;45.618;5.130;2024-03-08T09:11:00;16.25;;;9.75;;
48727;SDS011;34527;45.618;5.130;2024-03-08T09:13:26;14.35;;;9.52;;
48727;SDS011;34527;45.618;5.130;2024-03-08T09:15:52;14.18;;;9.95;;
48727;SDS011;34527;45.618;5.130;2024-03-08T09:18:17;11.38;;;9.18;;
48727;SDS011;34527;45.618;5.130;2024-03-08T09:20:44;13.95;;;9.27;;
48727;SDS011;34527;45.618;5.130;2024-03-08T09:23:09;12.48;;;9.52;;
48727;SDS011;34527;45.618;5.130;2024-03-08T09:25:35;12.32;;;9.15;;
48727;SDS011;34527;45.618;5.130;2024-03-08T09:28:01;16.30;;;9.40;;
48727;SDS011;34527;45.618;5.130;2024-03-08T09:30:26;13.45;;;8.68;;
48727;SDS011;34527;45.618;5.130;2024-03-08T09:32:52;11.02;;;8.00;;
48727;SDS011;34527;45.618;5.130;2024-03-08T09:35:18;12.95;;;8.80;;
48727;SDS011;34527;45.618;5.130;2024-03-08T09:37:44;11.35;;;8.88;;
48727;SDS011;34527;45.618;5.130;2024-03-08T09:40:12;14.73;;;8.00;;
48727;SDS011;34527;45.618;5.130;2024-03-08T09:42:40;12.85;;;8.27;;
48727;SDS011;34527;45.618;5.130;2024-03-08T09:45:10;10.52;;;7.60;;
48727;SDS011;34527;45.618;5.130;2024-03-08T09:47:37;9.85;;;7.50;;
48727;SDS011;34527;45.618;5.130;2024-03-08T09:50:07;11.48;;;7.78;;
48727;SDS011;34527;45.618;5.130;2024-03-08T09:52:35;11.68;;;8.02;;
48727;SDS011;34527;45.618;5.130;2024-03-08T09:55:02;9.65;;;7.88;;
48727;SDS011;34527;45.618;5.130;2024-03-08T09:57:32;11.52;;;7.53;;
48727;SDS011;34527;45.618;5.130;2024-03-08T09:59:58;12.32;;;7.82;;
48727;SDS011;34527;45.618;5.130;2024-03-08T10:02:24;10.25;;;7.78;;
48727;SDS011;34527;45.618;5.130;2024-03-08T10:04:51;11.07;;;8.15;;
48727;SDS011;34527;45.618;5.130;2024-03-08T10:07:18;12.70;;;8.25;;
48727;SDS011;34527;45.618;5.130;2024-03-08T10:09:44;12.55;;;8.82;;
48727;SDS011;34527;45.618;5.130;2024-03-08T10:12:15;12.55;;;8.30;;
48727;SDS011;34527;45.618;5.130;2024-03-08T10:14:42;11.38;;;8.20;;
48727;SDS011;34527;45.618;5.130;2024-03-08T10:17:09;13.05;;;8.35;;
48727;SDS011;34527;45.618;5.130;2024-03-08T10:19:35;11.60;;;8.43;;
48727;SDS011;34527;45.618;5.130;2024-03-08T10:22:00;10.02;;;7.45;;
48727;SDS011;34527;45.618;5.130;2024-03-08T10:24:26;10.60;;;7.75;;
48727;SDS011;34527;45.618;5.130;2024-03-08T10:26:58;10.20;;;7.18;;
48727;SDS011;34527;45.618;5.130;2024-03-08T10:29:26;12.73;;;7.95;;
48727;SDS011;34527;45.618;5.130;2024-03-08T10:31:53;9.40;;;6.68;;
48727;SDS011;34527;45.618;5.130;2024-03-08T10:34:20;12.63;;;7.72;;
48727;SDS011;34527;45.618;5.130;2024-03-08T10:36:48;9.20;;;6.63;;
48727;SDS011;34527;45.618;5.130;2024-03-08T10:39:21;8.38;;;6.53;;
48727;SDS011;34527;45.618;5.130;2024-03-08T10:41:52;9.40;;;6.50;;
48727;SDS011;34527;45.618;5.130;2024-03-08T10:44:26;9.68;;;7.55;;
48727;SDS011;34527;45.618;5.130;2024-03-08T10:47:18;9.90;;;7.30;;
48727;SDS011;34527;45.618;5.130;2024-03-08T10:49:50;10.52;;;7.75;;
48727;SDS011;34527;45.618;5.130;2024-03-08T10:52:19;11.35;;;7.22;;
48727;SDS011;34527;45.618;5.130;2024-03-08T10:54:45;10.52;;;6.82;;
48727;SDS011;34527;45.618;5.130;2024-03-08T10:57:13;8.77;;;6.82;;
48727;SDS011;34527;45.618;5.130;2024-03-08T10:59:42;13.27;;;9.20;;
48727;SDS011;34527;45.618;5.130;2024-03-08T11:02:09;9.52;;;7.65;;
48727;SDS011;34527;45.618;5.130;2024-03-08T11:04:37;11.80;;;7.20;;
48727;SDS011;34527;45.618;5.130;2024-03-08T11:07:03;10.80;;;8.13;;
48727;SDS011;34527;45.618;5.130;2024-03-08T11:09:32;12.90;;;8.73;;
48727;SDS011;34527;45.618;5.130;2024-03-08T11:12:19;10.98;;;6.60;;
48727;SDS011;34527;45.618;5.130;2024-03-08T11:14:46;8.70;;;6.68;;
48727;SDS011;34527;45.618;5.130;2024-03-08T11:17:15;10.40;;;6.75;;
48727;SDS011;34527;45.618;5.130;2024-03-08T11:19:47;6.00;;;4.00;;
48727;SDS011;34527;45.618;5.130;2024-03-08T11:22:23;4.07;;;2.53;;
48727;SDS011;34527;45.618;5.130;2024-03-08T11:24:52;5.85;;;4.90;;
48727;SDS011;34527;45.618;5.130;2024-03-08T11:27:18;9.20;;;6.03;;
48727;SDS011;34527;45.618;5.130;2024-03-08T11:30:03;8.35;;;6.68;;
48727;SDS011;34527;45.618;5.130;2024-03-08T11:32:37;11.60;;;6.55;;
48727;SDS011;34527;45.618;5.130;2024-03-08T11:35:22;10.65;;;7.38;;
48727;SDS011;34527;45.618;5.130;2024-03-08T11:37:48;10.48;;;6.75;;
48727;SDS011;34527;45.618;5.130;2024-03-08T11:40:14;12.05;;;7.75;;
48727;SDS011;34527;45.618;5.130;2024-03-08T11:42:45;8.90;;;6.55;;
48727;SDS011;34527;45.618;5.130;2024-03-08T11:45:14;10.77;;;7.65;;
48727;SDS011;34527;45.618;5.130;2024-03-08T11:47:45;10.75;;;7.50;;
48727;SDS011;34527;45.618;5.130;2024-03-08T11:50:11;9.00;;;7.20;;
48727;SDS011;34527;45.618;5.130;2024-03-08T11:52:40;10.70;;;7.03;;
48727;SDS011;34527;45.618;5.130;2024-03-08T11:55:07;11.63;;;8.20;;
48727;SDS011;34527;45.618;5.130;2024-03-08T11:57:33;11.93;;;8.27;;
48727;SDS011;34527;45.618;5.130;2024-03-08T11:59:59;12.32;;;8.13;;
48727;SDS011;34527;45.618;5.130;2024-03-08T12:02:32;11.80;;;7.60;;
48727;SDS011;34527;45.618;5.130;2024-03-08T12:05:00;11.75;;;8.30;;
48727;SDS011;34527;45.618;5.130;2024-03-08T12:07:28;10.30;;;8.10;;
48727;SDS011;34527;45.618;5.130;2024-03-08T12:12:52;11.93;;;8.88;;
48727;SDS011;34527;45.618;5.130;2024-03-08T12:15:19;13.55;;;8.60;;
48727;SDS011;34527;45.618;5.130;2024-03-08T12:17:47;11.50;;;8.30;;
48727;SDS011;34527;45.618;5.130;2024-03-08T12:20:19;12.18;;;8.45;;
48727;SDS011;34527;45.618;5.130;2024-03-08T12:22:49;10.55;;;8.00;;
48727;SDS011;34527;45.618;5.130;2024-03-08T12:25:19;14.07;;;10.32;;
48727;SDS011;34527;45.618;5.130;2024-03-08T12:27:45;18.55;;;12.60;;
48727;SDS011;34527;45.618;5.130;2024-03-08T12:30:18;13.63;;;9.95;;
48727;SDS011;34527;45.618;5.130;2024-03-08T12:32:57;13.25;;;9.65;;
48727;SDS011;34527;45.618;5.130;2024-03-08T12:35:25;11.45;;;8.63;;
48727;SDS011;34527;45.618;5.130;2024-03-08T12:37:53;13.32;;;9.30;;
48727;SDS011;34527;45.618;5.130;2024-03-08T12:40:26;10.98;;;8.05;;
48727;SDS011;34527;45.618;5.130;2024-03-08T12:42:53;16.40;;;12.00;;
48727;SDS011;34527;45.618;5.130;2024-03-08T12:45:20;18.13;;;13.15;;
48727;SDS011;34527;45.618;5.130;2024-03-08T12:47:49;16.63;;;12.52;;
48727;SDS011;34527;45.618;5.130;2024-03-08T12:50:21;21.17;;;14.77;;
48727;SDS011;34527;45.618;5.130;2024-03-08T12:52:47;15.95;;;10.73;;
48727;SDS011;34527;45.618;5.130;2024-03-08T12:55:17;15.20;;;11.82;;
48727;SDS011;34527;45.618;5.130;2024-03-08T12:57:44;15.85;;;10.57;;
48727;SDS011;34527;45.618;5.130;2024-03-08T13:00:10;10.30;;;7.70;;
48727;SDS011;34527;45.618;5.130;2024-03-08T13:02:44;8.93;;;7.22;;
48727;SDS011;34527;45.618;5.130;2024-03-08T13:05:11;10.13;;;7.32;;
48727;SDS011;34527;45.618;5.130;2024-03-08T13:07:39;12.15;;;7.82;;
48727;SDS011;34527;45.618;5.130;2024-03-08T13:10:14;9.88;;;7.43;;
48727;SDS011;34527;45.618;5.130;2024-03-08T13:12:41;12.35;;;7.97;;
48727;SDS011;34527;45.618;5.130;2024-03-08T13:15:08;10.70;;;7.13;;
48727;SDS011;34527;45.618;5.130;2024-03-08T13:17:36;7.82;;;6.90;;
48727;SDS011;34527;45.618;5.130;2024-03-08T13:20:05;10.70;;;7.10;;
48727;SDS011;34527;45.618;5.130;2024-03-08T13:22:32;8.35;;;7.10;;
48727;SDS011;34527;45.618;5.130;2024-03-08T13:24:58;9.98;;;7.13;;
48727;SDS011;34527;45.618;5.130;2024-03-08T13:27:26;10.52;;;7.65;;
48727;SDS011;34527;45.618;5.130;2024-03-08T13:29:54;11.52;;;7.65;;
48727;SDS011;34527;45.618;5.130;2024-03-08T13:32:20;11.88;;;7.90;;
48727;SDS011;34527;45.618;5.130;2024-03-08T13:34:47;10.32;;;7.70;;
48727;SDS011;34527;45.618;5.130;2024-03-08T13:37:12;7.70;;;5.80;;
48727;SDS011;34527;45.618;5.130;2024-03-08T13:39:41;8.55;;;5.13;;
48727;SDS011;34527;45.618;5.130;2024-03-08T13:42:11;3.97;;;3.13;;
48727;SDS011;34527;45.618;5.130;2024-03-08T13:44:43;4.72;;;2.80;;
48727;SDS011;34527;45.618;5.130;2024-03-08T13:47:15;6.10;;;2.55;;
48727;SDS011;34527;45.618;5.130;2024-03-08T13:49:42;4.47;;;2.60;;
48727;SDS011;34527;45.618;5.130;2024-03-08T13:52:08;3.78;;;2.65;;
48727;SDS011;34527;45.618;5.130;2024-03-08T13:54:35;3.88;;;2.33;;
48727;SDS011;34527;45.618;5.130;2024-03-08T13:57:01;2.53;;;2.22;;
48727;SDS011;34527;45.618;5.130;2024-03-08T13:59:31;4.35;;;1.90;;
48727;SDS011;34527;45.618;5.130;2024-03-08T14:01:58;4.10;;;1.90;;
48727;SDS011;34527;45.618;5.130;2024-03-08T14:04:25;1.92;;;1.45;;
48727;SDS011;34527;45.618;5.130;2024-03-08T14:06:52;4.90;;;1.70;;
48727;SDS011;34527;45.618;5.130;2024-03-08T14:09:21;2.55;;;1.80;;
48727;SDS011;34527;45.618;5.130;2024-03-08T14:11:54;1.73;;;1.23;;
48727;SDS011;34527;45.618;5.130;2024-03-08T14:14:23;2.10;;;1.42;;
48727;SDS011;34527;45.618;5.130;2024-03-08T14:16:49;2.97;;;1.27;;
48727;SDS011;34527;45.618;5.130;2024-03-08T14:19:18;3.40;;;1.17;;
48727;SDS011;34527;45.618;5.130;2024-03-08T14:21:44;1.13;;;0.95;;
48727;SDS011;34527;45.618;5.130;2024-03-08T14:24:10;2.47;;;1.00;;
48727;SDS011;34527;45.618;5.130;2024-03-08T14:26:35;1.92;;;1.27;;
48727;SDS011;34527;45.618;5.130;2024-03-08T14:29:03;3.50;;;1.20;;
48727;SDS011;34527;45.618;5.130;2024-03-08T14:31:30;3.05;;;1.20;;
48727;SDS011;34527;45.618;5.130;2024-03-08T14:33:56;0.88;;;0.88;;
48727;SDS011;34527;45.618;5.130;2024-03-08T14:36:23;1.65;;;1.13;;
48727;SDS011;34527;45.618;5.130;2024-03-08T14:38:50;2.95;;;1.13;;